Time;durP1;ratioP1;P1;durP2;ratioP2;P2;SDS_P1;SDS_P2;PMS_P1;PMS_P2;Temp;Humidity;BMP_temperature;BMP_pressure;BME280_temperature;BME280_humidity;BME280_pressure;Samples;Min_cycle;Max_cycle;Signal;HPM_P1;HPM_P2
2023/05/04 00:01:09;;;;;;;88.55;52.88;;;17.70;67.10;;;;;;4976480;28;95849;-75
2023/05/04 00:03:36;;;;;;;88.72;53.03;;;17.70;67.20;;;;;;4981635;28;95804;-73
2023/05/04 00:06:01;;;;;;;88.50;52.88;;;17.70;67.10;;;;;;4981182;28;94655;-76
2023/05/04 00:08:27;;;;;;;89.30;53.22;;;17.70;67.10;;;;;;4980818;28;95197;-75
2023/05/04 00:10:54;;;;;;;88.72;53.20;;;17.70;67.10;;;;;;4996609;28;94655;-75
2023/05/04 00:13:20;;;;;;;88.93;53.10;;;17.60;67.00;;;;;;4979015;28;94553;-73
2023/05/04 00:15:46;;;;;;;89.40;53.35;;;17.70;67.10;;;;;;4977503;28;94387;-74
2023/05/04 00:18:11;;;;;;;88.28;52.88;;;17.60;67.00;;;;;;4982686;28;93771;-75
2023/05/04 00:20:37;;;;;;;88.40;52.80;;;17.60;67.00;;;;;;4980141;28;94615;-76
2023/05/04 00:23:03;;;;;;;88.38;53.08;;;17.60;67.00;;;;;;4982387;28;94539;-75
2023/05/04 00:25:29;;;;;;;88.72;52.85;;;17.60;67.00;;;;;;4984447;28;96083;-75
2023/05/04 00:27:54;;;;;;;87.80;52.83;;;17.60;67.00;;;;;;4978509;28;95248;-75
2023/05/04 00:30:21;;;;;;;88.13;53.28;;;17.60;67.00;;;;;;4980619;28;95262;-75
2023/05/04 00:32:46;;;;;;;87.88;52.92;;;17.60;67.00;;;;;;4984205;28;94115;-75
2023/05/04 00:35:12;;;;;;;89.00;53.20;;;17.60;67.00;;;;;;4983485;28;94486;-75
2023/05/04 00:37:38;;;;;;;88.88;52.88;;;17.60;67.00;;;;;;4981980;28;95899;-75
2023/05/04 00:40:04;;;;;;;87.60;52.80;;;17.60;67.00;;;;;;4980030;28;95312;-75
2023/05/04 00:42:30;;;;;;;88.18;52.35;;;17.60;67.10;;;;;;4975143;28;95205;-75
2023/05/04 00:44:55;;;;;;;87.45;52.38;;;17.50;67.10;;;;;;4981158;28;94634;-75
2023/05/04 00:47:21;;;;;;;88.65;53.20;;;17.50;67.10;;;;;;4987005;28;94614;-75
2023/05/04 00:49:47;;;;;;;88.15;53.05;;;17.50;67.10;;;;;;4981646;28;95928;-75
2023/05/04 00:52:14;;;;;;;88.32;53.13;;;17.50;67.10;;;;;;4981070;28;95081;-74
2023/05/04 00:54:45;;;;;;;88.43;53.20;;;17.50;67.10;;;;;;4985832;28;95313;-74
2023/05/04 00:57:11;;;;;;;87.85;53.03;;;17.50;67.10;;;;;;4976921;28;95145;-74
2023/05/04 00:59:38;;;;;;;88.82;53.50;;;17.50;67.20;;;;;;4980389;28;95195;-73
2023/05/04 01:02:04;;;;;;;89.43;52.88;;;17.50;67.20;;;;;;4980356;28;94344;-75
2023/05/04 01:04:30;;;;;;;88.60;53.00;;;17.40;67.00;;;;;;4976029;28;99290;-75
2023/05/04 01:07:16;;;;;;;89.40;53.05;;;17.50;67.10;;;;;;4981118;28;93739;-76
2023/05/04 01:09:58;;;;;;;88.43;52.75;;;17.40;67.00;;;;;;4979845;28;94377;-74
2023/05/04 01:12:36;;;;;;;89.80;53.33;;;17.40;67.10;;;;;;4977133;28;95771;-74
2023/05/04 01:15:03;;;;;;;87.85;52.72;;;17.40;67.10;;;;;;4975442;28;97171;-75
2023/05/04 01:17:28;;;;;;;87.70;52.83;;;17.40;67.20;;;;;;4980008;28;95201;-75
2023/05/04 01:19:55;;;;;;;89.50;52.72;;;17.40;67.10;;;;;;4980783;28;94499;-74
2023/05/04 01:22:21;;;;;;;88.75;53.08;;;17.40;67.20;;;;;;4982211;28;93955;-74
2023/05/04 01:24:46;;;;;;;88.65;52.70;;;17.40;67.10;;;;;;4974858;28;95135;-74
2023/05/04 01:27:25;;;;;;;88.38;53.03;;;17.40;67.10;;;;;;4980201;28;94828;-74
2023/05/04 01:29:58;;;;;;;86.93;52.50;;;17.40;67.10;;;;;;4978393;28;95028;-74
2023/05/04 01:32:27;;;;;;;88.85;53.00;;;17.40;67.10;;;;;;4979551;28;93914;-75
2023/05/04 01:34:53;;;;;;;87.97;52.92;;;17.30;67.10;;;;;;4973556;28;96107;-75
2023/05/04 01:37:19;;;;;;;88.03;53.05;;;17.40;67.20;;;;;;4977020;28;96114;-74
2023/05/04 01:39:45;;;;;;;88.22;52.88;;;17.30;67.20;;;;;;4975990;28;95159;-75
2023/05/04 01:42:10;;;;;;;88.63;53.08;;;17.30;67.10;;;;;;4980545;28;96502;-74
2023/05/04 01:44:36;;;;;;;87.93;53.05;;;17.30;67.10;;;;;;4988581;28;95017;-74
2023/05/04 01:47:02;;;;;;;88.72;53.15;;;17.30;67.10;;;;;;4978089;28;94662;-74
2023/05/04 01:49:28;;;;;;;87.18;52.50;;;17.30;67.10;;;;;;4982041;28;94298;-75
2023/05/04 01:51:54;;;;;;;88.18;52.85;;;17.30;67.10;;;;;;4978975;28;94619;-74
2023/05/04 01:54:20;;;;;;;87.65;52.67;;;17.30;67.20;;;;;;4980784;28;94273;-75
2023/05/04 01:56:46;;;;;;;88.35;52.60;;;17.30;67.20;;;;;;4982939;28;95924;-73
2023/05/04 01:59:11;;;;;;;87.43;52.75;;;17.30;67.20;;;;;;4980643;28;94593;-74
2023/05/04 02:01:37;;;;;;;88.40;52.97;;;17.30;67.90;;;;;;4981358;28;94687;-74
2023/05/04 02:04:03;;;;;;;87.75;52.53;;;17.20;67.10;;;;;;4976495;28;96248;-74
2023/05/04 02:06:28;;;;;;;89.70;53.17;;;17.20;67.20;;;;;;4984380;28;94651;-74
2023/05/04 02:08:54;;;;;;;87.28;52.75;;;17.20;67.10;;;;;;4977005;28;94097;-74
2023/05/04 02:11:20;;;;;;;87.93;52.88;;;17.20;67.20;;;;;;4986141;28;94782;-74
2023/05/04 02:13:46;;;;;;;88.32;52.92;;;17.20;67.10;;;;;;4982620;28;94640;-74
2023/05/04 02:16:11;;;;;;;89.15;53.20;;;17.20;67.10;;;;;;4982961;28;95088;-75
2023/05/04 02:18:37;;;;;;;87.30;52.85;;;17.20;67.10;;;;;;4980059;28;94477;-75
2023/05/04 02:21:03;;;;;;;87.80;52.67;;;17.20;67.20;;;;;;4982201;28;93247;-76
2023/05/04 02:23:28;;;;;;;87.90;53.10;;;17.20;67.20;;;;;;4980708;28;95006;-75
2023/05/04 02:25:55;;;;;;;88.60;53.08;;;17.20;67.20;;;;;;4982631;28;94942;-75
2023/05/04 02:28:20;;;;;;;88.07;52.90;;;17.10;67.10;;;;;;4982964;28;95241;-75
2023/05/04 02:30:46;;;;;;;87.50;52.92;;;17.20;67.20;;;;;;4976946;28;94733;-75
2023/05/04 02:33:12;;;;;;;87.88;52.83;;;17.10;67.20;;;;;;4982232;28;94698;-74
2023/05/04 02:35:37;;;;;;;87.07;52.72;;;17.10;67.10;;;;;;4987696;28;94664;-74
2023/05/04 02:38:03;;;;;;;88.88;52.95;;;17.10;67.10;;;;;;4984604;28;95008;-75
2023/05/04 02:40:29;;;;;;;87.93;53.00;;;17.10;67.10;;;;;;4983763;28;99121;-75
2023/05/04 02:42:54;;;;;;;88.28;53.17;;;17.10;67.10;;;;;;4979845;28;95455;-74
2023/05/04 02:45:20;;;;;;;88.35;52.95;;;17.10;67.10;;;;;;4983139;28;94481;-74
2023/05/04 02:47:46;;;;;;;87.00;52.80;;;17.10;67.10;;;;;;4984466;28;94380;-75
2023/05/04 02:50:12;;;;;;;88.70;52.55;;;17.10;67.90;;;;;;4983834;28;95469;-76
2023/05/04 02:52:37;;;;;;;86.80;52.50;;;17.10;67.10;;;;;;4983882;28;95077;-74
2023/05/04 02:55:06;;;;;;;87.32;53.03;;;17.10;67.10;;;;;;4979835;28;94664;-75
2023/05/04 02:57:32;;;;;;;87.20;52.78;;;17.10;67.10;;;;;;4997518;28;94398;-75
2023/05/04 02:59:58;;;;;;;88.28;52.90;;;17.00;67.00;;;;;;4983221;28;94597;-73
2023/05/04 03:02:23;;;;;;;88.55;52.97;;;17.00;67.10;;;;;;4985974;28;95531;-76
2023/05/04 03:04:49;;;;;;;87.90;52.75;;;17.00;67.00;;;;;;4984331;28;96870;-75
2023/05/04 03:07:15;;;;;;;88.80;53.00;;;17.00;67.00;;;;;;4981792;28;94318;-75
2023/05/04 03:09:40;;;;;;;86.93;52.67;;;17.00;67.00;;;;;;5000389;28;95580;-74
2023/05/04 03:12:06;;;;;;;87.53;52.90;;;17.00;67.00;;;;;;4981369;28;94693;-76
2023/05/04 03:14:32;;;;;;;87.63;52.83;;;17.00;67.00;;;;;;4983748;28;96294;-75
2023/05/04 03:16:57;;;;;;;87.05;52.60;;;17.00;67.00;;;;;;4979337;28;95959;-75
2023/05/04 03:19:23;;;;;;;87.95;52.85;;;17.00;67.00;;;;;;4983493;28;94437;-75
2023/05/04 03:21:49;;;;;;;87.72;52.70;;;17.00;67.00;;;;;;4983939;28;94327;-75
2023/05/04 03:24:16;;;;;;;86.68;52.47;;;17.00;67.00;;;;;;4983444;28;93965;-75
2023/05/04 03:26:42;;;;;;;87.10;52.55;;;17.00;67.00;;;;;;4985013;28;94778;-75
2023/05/04 03:29:09;;;;;;;87.85;53.05;;;17.00;67.10;;;;;;4982963;28;94441;-75
2023/05/04 03:31:34;;;;;;;88.35;52.85;;;16.90;67.00;;;;;;4981685;28;96443;-75
2023/05/04 03:34:00;;;;;;;88.50;52.80;;;17.00;67.00;;;;;;4982708;28;93913;-73
2023/05/04 03:36:26;;;;;;;88.03;52.97;;;17.00;67.00;;;;;;4986739;28;94734;-75
2023/05/04 03:38:51;;;;;;;87.20;52.60;;;16.90;67.00;;;;;;4986660;28;93934;-75
2023/05/04 03:41:17;;;;;;;87.40;52.83;;;16.90;67.00;;;;;;4984925;28;95615;-75
2023/05/04 03:43:42;;;;;;;86.43;52.53;;;16.90;67.00;;;;;;4983641;28;94645;-75
2023/05/04 03:46:08;;;;;;;87.88;52.75;;;16.90;67.00;;;;;;4983316;28;94657;-75
2023/05/04 03:48:34;;;;;;;86.97;52.60;;;16.90;67.10;;;;;;4981244;28;94643;-75
2023/05/04 03:50:59;;;;;;;86.38;52.40;;;16.90;67.10;;;;;;4984876;28;94323;-75
2023/05/04 03:53:25;;;;;;;87.57;52.58;;;16.90;67.00;;;;;;4985860;28;94926;-74
2023/05/04 03:55:51;;;;;;;86.70;52.63;;;16.90;67.10;;;;;;4982868;28;94327;-75
2023/05/04 03:58:16;;;;;;;86.80;52.67;;;16.80;67.00;;;;;;4985056;28;95229;-75
2023/05/04 04:00:42;;;;;;;87.85;52.60;;;16.80;67.00;;;;;;4980337;28;94834;-75
2023/05/04 04:03:08;;;;;;;87.30;52.60;;;16.90;67.10;;;;;;4985237;28;94378;-73
2023/05/04 04:05:33;;;;;;;86.10;52.28;;;16.80;67.10;;;;;;4979500;28;95623;-75
2023/05/04 04:07:59;;;;;;;89.05;53.08;;;16.80;67.00;;;;;;4982196;28;94470;-74
2023/05/04 04:10:25;;;;;;;87.30;52.72;;;16.80;67.10;;;;;;4978900;28;94489;-74
2023/05/04 04:12:51;;;;;;;87.63;52.85;;;16.80;67.10;;;;;;4991641;28;94695;-75
2023/05/04 04:15:16;;;;;;;87.93;52.83;;;16.80;67.10;;;;;;4981396;28;94424;-74
2023/05/04 04:17:42;;;;;;;86.85;52.28;;;16.80;67.10;;;;;;4986822;28;94837;-75
2023/05/04 04:20:08;;;;;;;87.90;53.13;;;16.80;67.10;;;;;;4981128;28;94592;-74
2023/05/04 04:22:37;;;;;;;87.05;52.65;;;16.80;67.10;;;;;;4982400;28;94484;-74
2023/05/04 04:25:03;;;;;;;87.65;52.95;;;16.70;67.00;;;;;;4978278;28;94074;-74
2023/05/04 04:27:28;;;;;;;89.60;52.85;;;16.80;67.10;;;;;;4978227;28;94165;-75
2023/05/04 04:29:54;;;;;;;87.05;52.63;;;16.80;67.20;;;;;;4980648;28;95642;-75
2023/05/04 04:32:21;;;;;;;87.82;52.40;;;16.80;67.10;;;;;;4983365;28;95360;-75
2023/05/04 04:34:47;;;;;;;87.38;52.85;;;16.80;67.10;;;;;;4980930;28;94126;-74
2023/05/04 04:37:12;;;;;;;87.35;52.63;;;16.70;67.10;;;;;;4980790;28;94166;-77
2023/05/04 04:39:38;;;;;;;88.95;52.95;;;16.70;67.10;;;;;;4979576;28;94742;-75
2023/05/04 04:42:04;;;;;;;88.95;52.75;;;16.70;67.10;;;;;;4983467;28;94660;-74
2023/05/04 04:44:29;;;;;;;88.35;52.70;;;16.70;67.10;;;;;;4982081;28;94254;-75
2023/05/04 04:46:55;;;;;;;88.63;52.55;;;16.70;67.20;;;;;;4980202;28;94939;-75
2023/05/04 04:49:21;;;;;;;86.15;52.38;;;16.70;67.20;;;;;;4983082;28;96006;-74
2023/05/04 04:51:47;;;;;;;87.60;52.28;;;16.70;67.20;;;;;;4996906;28;95875;-75
2023/05/04 04:54:13;;;;;;;88.68;52.83;;;16.70;67.20;;;;;;4983122;28;94989;-75
2023/05/04 04:56:39;;;;;;;86.30;52.63;;;16.70;67.20;;;;;;4983164;28;95376;-74
2023/05/04 04:59:05;;;;;;;89.30;53.15;;;16.70;67.20;;;;;;4981986;28;94838;-75
2023/05/04 05:01:32;;;;;;;86.70;52.60;;;16.60;67.20;;;;;;5000417;28;96620;-74
2023/05/04 05:03:58;;;;;;;87.55;52.45;;;16.60;67.20;;;;;;4983585;28;95733;-75
2023/05/04 05:06:24;;;;;;;87.43;52.85;;;16.60;67.20;;;;;;4985489;28;94616;-74
2023/05/04 05:08:50;;;;;;;86.32;52.42;;;16.60;67.20;;;;;;4979739;28;96855;-74
2023/05/04 05:11:16;;;;;;;86.32;52.55;;;16.60;67.30;;;;;;4982865;28;94202;-76
2023/05/04 05:13:42;;;;;;;86.72;52.60;;;16.60;67.20;;;;;;4976300;28;94551;-74
2023/05/04 05:16:07;;;;;;;86.05;52.40;;;16.60;67.30;;;;;;4980686;28;94059;-75
2023/05/04 05:18:33;;;;;;;87.03;52.63;;;16.60;67.30;;;;;;4980457;28;95376;-75
2023/05/04 05:20:59;;;;;;;86.90;52.47;;;16.60;67.30;;;;;;4982567;28;94967;-75
2023/05/04 05:23:25;;;;;;;86.70;52.67;;;16.60;67.20;;;;;;4996045;28;94739;-74
2023/05/04 05:25:52;;;;;;;86.00;52.17;;;16.60;67.40;;;;;;4975611;28;94887;-75
2023/05/04 05:28:17;;;;;;;86.38;52.58;;;16.60;67.40;;;;;;4982722;28;94626;-75
2023/05/04 05:30:43;;;;;;;86.43;52.65;;;16.60;67.40;;;;;;4977563;28;96480;-75
2023/05/04 05:33:09;;;;;;;87.15;52.60;;;16.60;67.40;;;;;;4984375;28;95170;-75
2023/05/04 05:35:35;;;;;;;86.28;52.40;;;16.60;67.40;;;;;;4986670;28;93481;-74
2023/05/04 05:38:01;;;;;;;86.85;52.50;;;16.60;67.40;;;;;;4984881;28;94808;-75
2023/05/04 05:40:27;;;;;;;87.78;52.70;;;16.50;67.40;;;;;;4977662;28;93913;-75
2023/05/04 05:42:52;;;;;;;86.30;52.35;;;16.60;67.40;;;;;;4982352;28;96543;-75
2023/05/04 05:45:18;;;;;;;86.97;52.72;;;16.50;67.40;;;;;;4984993;28;95074;-74
2023/05/04 05:47:44;;;;;;;87.60;52.60;;;16.50;68.10;;;;;;4973407;28;95056;-74
2023/05/04 05:50:12;;;;;;;86.22;52.22;;;16.60;67.50;;;;;;4975154;28;94673;-74
2023/05/04 05:52:38;;;;;;;87.35;52.80;;;16.50;67.40;;;;;;4976578;28;94513;-74
2023/05/04 05:55:04;;;;;;;85.80;52.38;;;16.50;67.50;;;;;;4980685;28;95604;-74
2023/05/04 05:57:30;;;;;;;85.82;52.20;;;16.50;67.50;;;;;;4978329;28;94733;-73
2023/05/04 05:59:56;;;;;;;87.03;52.63;;;16.60;67.60;;;;;;4980080;28;95354;-74
2023/05/04 06:02:22;;;;;;;86.75;52.70;;;16.50;67.50;;;;;;4975996;28;94396;-77
2023/05/04 06:04:48;;;;;;;87.07;52.30;;;16.50;67.50;;;;;;4970153;28;94190;-74
2023/05/04 06:07:14;;;;;;;86.43;52.58;;;16.60;68.30;;;;;;4970048;28;95410;-74
2023/05/04 06:09:40;;;;;;;87.80;52.85;;;16.60;68.10;;;;;;4970464;28;94861;-75
2023/05/04 06:12:11;;;;;;;86.57;52.42;;;16.60;67.90;;;;;;4979652;28;94763;-74
2023/05/04 06:14:37;;;;;;;91.00;53.22;;;16.60;67.60;;;;;;4978689;28;95201;-72
2023/05/04 06:17:02;;;;;;;88.38;53.13;;;16.60;67.90;;;;;;4978111;28;95638;-75
2023/05/04 06:19:28;;;;;;;87.22;52.78;;;16.60;68.20;;;;;;4977856;28;94446;-74
2023/05/04 06:21:54;;;;;;;88.30;52.83;;;16.70;67.80;;;;;;4974238;28;95557;-74
2023/05/04 06:24:21;;;;;;;87.93;53.13;;;16.70;68.10;;;;;;4982136;28;95197;-74
2023/05/04 06:26:47;;;;;;;87.25;52.92;;;16.70;68.20;;;;;;4983504;28;95298;-74
2023/05/04 06:29:12;;;;;;;88.53;52.55;;;16.70;68.00;;;;;;4972142;28;100201;-74
2023/05/04 06:31:38;;;;;;;87.90;52.65;;;16.70;68.10;;;;;;4972269;28;96750;-75
2023/05/04 06:34:04;;;;;;;88.22;52.72;;;16.70;68.10;;;;;;4979462;28;96072;-75
2023/05/04 06:36:30;;;;;;;88.45;52.90;;;16.70;68.00;;;;;;4981401;28;95341;-73
2023/05/04 06:38:57;;;;;;;87.43;52.75;;;16.70;68.00;;;;;;4982417;28;95552;-73
2023/05/04 06:41:23;;;;;;;87.63;53.42;;;16.80;67.90;;;;;;5016470;22;94797;-45
2023/05/04 06:43:49;;;;;;;89.82;53.58;;;16.80;67.90;;;;;;5007097;27;94773;-46
2023/05/04 06:46:15;;;;;;;88.93;53.45;;;16.80;67.80;;;;;;5015261;27;94716;-47
2023/05/04 06:48:41;;;;;;;89.32;53.35;;;16.80;67.90;;;;;;5010838;27;93974;-46
2023/05/04 06:51:07;;;;;;;87.47;53.05;;;16.80;67.70;;;;;;5009301;27;94772;-57
2023/05/04 06:53:32;;;;;;;90.03;53.67;;;16.80;67.20;;;;;;5004916;27;99562;-53
2023/05/04 06:55:58;;;;;;;91.00;53.58;;;16.80;67.20;;;;;;5000222;27;100319;-45
2023/05/04 06:58:24;;;;;;;88.05;53.40;;;16.80;67.70;;;;;;4996828;27;96037;-48
2023/05/04 07:00:51;;;;;;;87.50;53.13;;;16.80;67.80;;;;;;5002565;27;95372;-46
2023/05/04 07:03:17;;;;;;;90.55;53.47;;;16.90;68.00;;;;;;5002751;27;96568;-50
2023/05/04 07:05:47;;;;;;;89.50;53.47;;;16.90;67.80;;;;;;4995986;27;95685;-58
2023/05/04 07:08:13;;;;;;;90.15;53.95;;;16.90;67.80;;;;;;4998738;27;94704;-55
2023/05/04 07:10:38;;;;;;;88.72;53.58;;;16.90;68.10;;;;;;4999604;27;96415;-52
2023/05/04 07:13:04;;;;;;;90.90;53.45;;;16.90;68.30;;;;;;5005943;27;95205;-54
2023/05/04 07:15:32;;;;;;;88.70;53.67;;;16.90;68.30;;;;;;5001418;27;101122;-45
2023/05/04 07:17:58;;;;;;;89.60;53.15;;;16.90;68.30;;;;;;5006742;27;95426;-48
2023/05/04 07:20:24;;;;;;;92.82;53.35;;;16.90;67.80;;;;;;5013011;27;95936;-46
2023/05/04 07:22:55;;;;;;;88.45;53.33;;;16.90;67.40;;;;;;5009436;27;95648;-50
2023/05/04 07:25:21;;;;;;;89.17;53.40;;;16.90;67.30;;;;;;5007303;27;95396;-50
2023/05/04 07:27:47;;;;;;;89.20;53.58;;;16.90;67.70;;;;;;5015294;27;95282;-47
2023/05/04 07:30:13;;;;;;;90.03;53.78;;;17.00;68.10;;;;;;5000104;27;95497;-45
2023/05/04 07:32:39;;;;;;;90.05;53.72;;;16.90;68.00;;;;;;4993442;27;95606;-44
2023/05/04 07:35:05;;;;;;;91.32;53.85;;;17.00;68.10;;;;;;4997019;27;95959;-45
2023/05/04 07:37:32;;;;;;;92.57;54.10;;;17.00;68.40;;;;;;5000126;28;95249;-44
2023/05/04 07:39:59;;;;;;;90.18;53.85;;;17.00;68.70;;;;;;5007638;27;97071;-49
2023/05/04 07:42:26;;;;;;;93.20;54.28;;;17.00;68.70;;;;;;5005027;27;96454;-54
2023/05/04 07:44:52;;;;;;;91.07;54.15;;;17.00;68.50;;;;;;4984772;27;96951;-48
2023/05/04 07:47:18;;;;;;;93.10;54.25;;;17.00;68.40;;;;;;4996433;27;96075;-50
2023/05/04 07:49:44;;;;;;;90.40;53.97;;;17.10;68.50;;;;;;4997552;27;95218;-54
2023/05/04 07:52:10;;;;;;;91.50;53.75;;;17.10;68.50;;;;;;4987123;28;94769;-46
2023/05/04 07:54:35;;;;;;;91.55;53.95;;;17.10;68.80;;;;;;4987448;28;96085;-46
2023/05/04 07:57:02;;;;;;;90.32;54.08;;;17.10;68.50;;;;;;4996418;27;100587;-49
2023/05/04 07:59:29;;;;;;;97.18;54.55;;;17.10;68.30;;;;;;5002111;27;96664;-46
2023/05/04 08:01:54;;;;;;;92.80;54.00;;;17.10;68.30;;;;;;4998549;27;95231;-45
2023/05/04 08:04:20;;;;;;;92.13;54.20;;;17.10;68.20;;;;;;4982472;28;97153;-53
2023/05/04 08:06:48;;;;;;;91.22;54.17;;;17.20;68.60;;;;;;4994798;27;96499;-44
2023/05/04 08:09:14;;;;;;;93.78;54.33;;;17.20;68.10;;;;;;5004196;27;95569;-47
2023/05/04 08:11:40;;;;;;;94.32;54.75;;;17.20;68.10;;;;;;5000210;27;95657;-45
2023/05/04 08:14:05;;;;;;;91.75;54.78;;;17.20;67.20;;;;;;5006239;27;95706;-48
2023/05/04 08:16:31;;;;;;;101.25;55.92;;;17.20;66.50;;;;;;4994964;27;99744;-46
2023/05/04 08:18:58;;;;;;;96.05;56.88;;;17.20;66.70;;;;;;4998932;27;95299;-48
2023/05/04 08:21:24;;;;;;;95.75;57.00;;;17.20;64.80;;;;;;4999977;27;94858;-58
2023/05/04 08:23:50;;;;;;;95.03;56.65;;;17.20;63.00;;;;;;5000828;27;96093;-45
2023/05/04 08:26:16;;;;;;;95.43;56.13;;;17.20;63.00;;;;;;5000265;27;95185;-48
2023/05/04 08:28:41;;;;;;;100.40;57.10;;;17.20;63.40;;;;;;5000875;27;95834;-47
2023/05/04 08:31:08;;;;;;;95.88;57.22;;;17.20;63.20;;;;;;4998266;27;95035;-48
2023/05/04 08:33:34;;;;;;;101.30;57.85;;;17.20;62.50;;;;;;4994513;27;96780;-52
2023/05/04 08:36:00;;;;;;;97.95;58.20;;;17.20;62.00;;;;;;4995769;27;97410;-47
2023/05/04 08:38:25;;;;;;;95.55;57.28;;;17.20;63.60;;;;;;4999280;28;95723;-49
2023/05/04 08:40:51;;;;;;;98.93;57.67;;;17.30;65.10;;;;;;4999325;27;95524;-47
2023/05/04 08:43:17;;;;;;;97.70;57.38;;;17.30;64.90;;;;;;4996522;27;95167;-46
2023/05/04 08:45:44;;;;;;;96.75;57.22;;;17.30;64.70;;;;;;5003257;27;96894;-45
2023/05/04 08:48:09;;;;;;;99.07;59.15;;;17.30;65.70;;;;;;4996475;27;95722;-42
2023/05/04 08:50:36;;;;;;;99.20;58.40;;;17.30;64.40;;;;;;5002137;27;94913;-41
2023/05/04 08:53:05;;;;;;;100.13;57.83;;;17.30;63.40;;;;;;4999352;27;95463;-48
2023/05/04 08:55:35;;;;;;;100.15;58.40;;;17.30;64.30;;;;;;4995333;27;96469;-43
2023/05/04 08:58:04;;;;;;;97.10;57.90;;;17.40;65.10;;;;;;5004288;28;96627;-43
2023/05/04 09:00:31;;;;;;;103.38;58.85;;;17.30;65.50;;;;;;5009759;27;95861;-43
2023/05/04 09:02:59;;;;;;;97.65;58.47;;;17.40;66.20;;;;;;5012978;27;96859;-48
2023/05/04 09:05:26;;;;;;;97.57;59.22;;;17.40;66.30;;;;;;5012381;27;94667;-42
2023/05/04 09:07:52;;;;;;;97.03;57.90;;;17.40;65.00;;;;;;4989805;28;95799;-55
2023/05/04 09:10:19;;;;;;;106.60;58.63;;;17.40;65.40;;;;;;5005007;27;95580;-57
2023/05/04 09:12:45;;;;;;;102.18;59.38;;;17.50;65.40;;;;;;5018107;27;96602;-55
2023/05/04 09:15:17;;;;;;;97.57;57.97;;;17.40;65.10;;;;;;5014159;27;95920;-48
2023/05/04 09:17:57;;;;;;;99.60;58.25;;;17.50;65.10;;;;;;4998839;27;95396;-46
2023/05/04 09:20:24;;;;;;;102.32;58.58;;;17.50;65.70;;;;;;5009585;27;95491;-45
2023/05/04 09:23:07;;;;;;;114.38;62.85;;;17.50;65.00;;;;;;5009547;27;96054;-47
2023/05/04 09:25:51;;;;;;;116.93;62.60;;;17.50;67.40;;;;;;5009271;27;96280;-49
2023/05/04 09:28:18;;;;;;;123.65;66.50;;;17.50;66.90;;;;;;5016411;27;95111;-43
2023/05/04 09:30:45;;;;;;;122.22;65.28;;;17.50;67.10;;;;;;5001714;27;95376;-43
2023/05/04 09:33:11;;;;;;;128.32;67.63;;;17.50;65.90;;;;;;5011474;27;94819;-47
2023/05/04 09:35:41;;;;;;;117.35;65.05;;;17.60;65.60;;;;;;5001200;27;95587;-45
2023/05/04 09:38:07;;;;;;;130.03;70.90;;;17.60;66.30;;;;;;5007109;27;95071;-47
2023/05/04 09:40:40;;;;;;;129.65;68.03;;;17.60;66.40;;;;;;5013372;27;94114;-51
2023/05/04 09:43:07;;;;;;;129.52;69.00;;;17.60;67.10;;;;;;5017075;27;94904;-48
2023/05/04 09:45:46;;;;;;;127.15;68.47;;;17.60;67.60;;;;;;5011095;27;94760;-45
2023/05/04 09:48:25;;;;;;;123.03;66.65;;;17.60;67.60;;;;;;5008946;27;96117;-48
2023/05/04 09:50:53;;;;;;;113.82;63.08;;;17.50;67.50;;;;;;5012580;27;95174;-55
2023/05/04 09:53:29;;;;;;;103.97;61.08;;;17.60;67.70;;;;;;5012801;27;95080;-49
2023/05/04 09:55:58;;;;;;;109.88;62.20;;;17.60;66.30;;;;;;5007408;27;94532;-57
2023/05/04 09:58:25;;;;;;;109.38;61.78;;;17.70;67.60;;;;;;5013372;27;95731;-46
2023/05/04 10:00:53;;;;;;;104.30;61.20;;;17.60;67.50;;;;;;5012539;27;94803;-57
2023/05/04 10:03:20;;;;;;;113.50;61.38;;;17.70;67.50;;;;;;5002214;27;95681;-48
2023/05/04 10:05:47;;;;;;;110.30;60.92;;;17.70;67.40;;;;;;5002547;27;98670;-47
2023/05/04 10:08:17;;;;;;;104.20;59.63;;;17.70;67.50;;;;;;4995769;27;95745;-50
2023/05/04 10:10:43;;;;;;;101.88;59.33;;;17.70;67.50;;;;;;4999612;27;95385;-52
2023/05/04 10:13:09;;;;;;;105.07;59.88;;;17.70;67.70;;;;;;4992807;27;96300;-49
2023/05/04 10:15:43;;;;;;;108.40;60.65;;;17.80;67.80;;;;;;4993270;27;98661;-46
2023/05/04 10:18:34;;;;;;;108.63;62.15;;;17.80;67.90;;;;;;4986712;27;101340;-43
2023/05/04 10:21:19;;;;;;;112.28;61.00;;;17.80;68.10;;;;;;4984576;27;96033;-44
2023/05/04 10:24:22;;;;;;;107.35;60.60;;;17.90;68.30;;;;;;4993021;27;100927;-43
2023/05/04 10:27:04;;;;;;;108.07;59.50;;;17.90;68.20;;;;;;4984137;27;104442;-49
2023/05/04 10:29:34;;;;;;;110.47;60.08;;;18.00;68.20;;;;;;4977248;27;99785;-51
2023/05/04 10:32:00;;;;;;;101.85;58.55;;;17.90;68.30;;;;;;4992840;27;100083;-50
2023/05/04 10:34:32;;;;;;;103.95;59.50;;;17.90;68.10;;;;;;4988335;27;96694;-53
2023/05/04 10:36:59;;;;;;;107.75;59.47;;;18.00;68.20;;;;;;4997225;27;96395;-54
2023/05/04 10:39:32;;;;;;;108.63;58.92;;;18.00;68.00;;;;;;4990097;27;96065;-43
2023/05/04 10:42:04;;;;;;;104.15;57.88;;;18.10;67.90;;;;;;5005374;27;94867;-44
2023/05/04 10:44:51;;;;;;;;;;;18.00;67.60;;;;;;5003751;27;95080;-47
2023/05/04 10:47:32;;;;;;;99.68;57.05;;;18.10;67.50;;;;;;5001283;27;94917;-44
2023/05/04 10:50:02;;;;;;;101.78;57.63;;;18.10;67.10;;;;;;4998258;27;94804;-44
2023/05/04 10:52:29;;;;;;;108.28;58.90;;;18.10;66.50;;;;;;5001150;27;96119;-45
2023/05/04 10:55:02;;;;;;;98.10;57.08;;;18.20;66.50;;;;;;4999683;27;95516;-45
2023/05/04 10:57:29;;;;;;;98.22;57.30;;;18.20;65.90;;;;;;4996460;27;95417;-46
2023/05/04 10:59:56;;;;;;;108.22;58.83;;;18.10;65.20;;;;;;4994318;27;95510;-49
2023/05/04 11:02:26;;;;;;;119.90;63.53;;;18.20;65.90;;;;;;4996833;27;96208;-45
2023/05/04 11:05:03;;;;;;;127.70;65.30;;;18.20;66.70;;;;;;4996232;27;97731;-46
2023/05/04 11:07:37;;;;;;;158.75;76.65;;;18.20;67.60;;;;;;4986827;28;96918;-47
2023/05/04 11:10:04;;;;;;;147.65;72.82;;;18.20;69.70;;;;;;5002626;27;95585;-53
2023/05/04 11:12:31;;;;;;;164.45;79.93;;;18.20;69.40;;;;;;5017273;27;95008;-51
2023/05/04 11:15:09;;;;;;;144.68;72.25;;;18.20;70.30;;;;;;5006995;27;95746;-57
2023/05/04 11:17:49;;;;;;;149.07;70.90;;;18.20;70.00;;;;;;5003270;27;95348;-53
2023/05/04 11:20:27;;;;;;;138.75;68.10;;;18.20;69.60;;;;;;4998494;27;98899;-48
2023/05/04 11:22:53;;;;;;;127.57;65.93;;;18.20;69.30;;;;;;4997368;27;94583;-46
2023/05/04 11:25:29;;;;;;;115.35;62.95;;;18.20;68.90;;;;;;4996635;27;98027;-43
2023/05/04 11:27:56;;;;;;;118.30;62.42;;;18.20;68.60;;;;;;4996092;27;94946;-53
2023/05/04 11:30:32;;;;;;;116.50;61.35;;;18.20;68.40;;;;;;5002231;27;95798;-50
2023/05/04 11:33:01;;;;;;;108.22;60.28;;;18.30;68.00;;;;;;4996278;27;99182;-52
2023/05/04 11:35:27;;;;;;;105.00;59.60;;;18.30;67.70;;;;;;4994547;27;95856;-52
2023/05/04 11:37:54;;;;;;;106.85;58.92;;;18.30;67.30;;;;;;4996116;27;95750;-50
2023/05/04 11:40:25;;;;;;;102.00;58.30;;;18.30;67.10;;;;;;4997784;27;96691;-47
2023/05/04 11:42:55;;;;;;;;;;;18.30;66.90;;;;;;4999867;27;95832;-56
2023/05/04 11:45:27;;;;;;;100.72;57.55;;;18.30;66.40;;;;;;4999596;27;99175;-48
2023/05/04 11:47:55;;;;;;;96.68;57.15;;;18.30;66.20;;;;;;4999209;27;98195;-51
2023/05/04 11:50:21;;;;;;;97.70;57.22;;;18.30;66.20;;;;;;4996691;27;96777;-47
2023/05/04 11:52:48;;;;;;;97.65;57.25;;;18.40;66.30;;;;;;5004136;27;95170;-48
2023/05/04 11:55:30;;;;;;;97.60;56.70;;;18.40;66.10;;;;;;4995923;27;96855;-50
2023/05/04 11:58:06;;;;;;;98.50;56.78;;;18.40;66.10;;;;;;4996711;27;96620;-47
2023/05/04 12:00:40;;;;;;;97.00;56.08;;;18.40;66.20;;;;;;4979356;27;95402;-50
2023/05/04 12:03:17;;;;;;;96.63;56.05;;;18.40;66.40;;;;;;4998535;27;94879;-48
2023/05/04 12:05:47;;;;;;;96.18;56.20;;;18.40;66.40;;;;;;4997940;27;99606;-50
2023/05/04 12:08:28;;;;;;;93.88;55.63;;;18.40;66.40;;;;;;5002426;27;96724;-47
2023/05/04 12:11:13;;;;;;;94.50;55.63;;;18.40;65.60;;;;;;4999308;27;94799;-46
2023/05/04 12:13:40;;;;;;;94.63;55.72;;;18.40;66.10;;;;;;4999747;27;94267;-44
2023/05/04 12:16:13;;;;;;;93.63;55.53;;;18.40;66.10;;;;;;4997836;27;99561;-46
2023/05/04 12:18:40;;;;;;;94.93;55.83;;;18.50;65.60;;;;;;4982175;27;97343;-46
2023/05/04 12:21:09;;;;;;;95.15;55.85;;;18.50;65.10;;;;;;4986348;27;96227;-47
2023/05/04 12:23:35;;;;;;;94.03;55.35;;;18.60;65.50;;;;;;4998966;27;95568;-45
2023/05/04 12:26:01;;;;;;;94.72;55.63;;;18.60;65.40;;;;;;4997180;27;95471;-45
2023/05/04 12:28:28;;;;;;;94.75;55.45;;;18.60;65.60;;;;;;5000672;27;96448;-48